KCNU/CNU METAR and TAF weather

Enter ICAO airport designator
Station Type Date Time Source
KCNU METAR 2023/01/30 10:52 UTC NOAA

KCNU 301052Z AUTO 01012KT 10SM OVC025 M08/M16 A3040 RMK AO2 SLP307 T10831156


Station Type Date Time Source
KCNU Decoded METAR 2023/01/30 10:52 UTC NOAA

CHANUTE JOHNSON AIRPORT, KS, United States (KCNU) 37-40N 95-29W 297M
Jan 30, 2023 - 05:52 AM EST / 2023.01.30 1052 UTC
Wind: from the N (010 degrees) at 14 MPH (12 KT):0
Visibility: 10 mile(s):0
Sky conditions: overcast
Temperature: 17.1 F (-8.3 C)
Windchill: 3 F (-16 C):1
Dew Point: 3.9 F (-15.6 C)
Relative Humidity: 55%
Pressure (altimeter): 30.4 in. Hg (1029 hPa)
ob: KCNU 301052Z AUTO 01012KT 10SM OVC025 M08/M16 A3040 RMK AO2 SLP307 T10831156
cycle: 11

Station Type Date Time Source
KCNU TAF 2023/01/30 12:28 UTC NOAA

TAF KCNU 301126Z 3012/3112 01012KT P6SM OVC025
FM301400 02012KT P6SM OVC050

Example: see airport list